sensor_id;sensor_type;location;lat;lon;timestamp;pressure;altitude;pressure_sealevel;temperature;humidity
58979;BME280;44763;50.464;30.612;2022-10-17T00:01:26;101920.11;;;5.57;73.59
58979;BME280;44763;50.464;30.612;2022-10-17T00:03:54;101932.61;;;5.55;73.64
58979;BME280;44763;50.464;30.612;2022-10-17T00:06:20;101928.52;;;5.51;73.60
58979;BME280;44763;50.464;30.612;2022-10-17T00:08:47;101932.97;;;5.51;73.65
58979;BME280;44763;50.464;30.612;2022-10-17T00:11:18;101937.53;;;5.49;73.57
58979;BME280;44763;50.464;30.612;2022-10-17T00:13:48;101938.97;;;5.47;73.56
58979;BME280;44763;50.464;30.612;2022-10-17T00:16:25;101939.19;;;5.44;73.64
58979;BME280;44763;50.464;30.612;2022-10-17T00:18:53;101935.58;;;5.39;73.61
58979;BME280;44763;50.464;30.612;2022-10-17T00:21:21;101940.02;;;5.33;73.70
58979;BME280;44763;50.464;30.612;2022-10-17T00:23:49;101938.30;;;5.26;73.90
58979;BME280;44763;50.464;30.612;2022-10-17T00:26:15;101937.33;;;5.22;74.09
58979;BME280;44763;50.464;30.612;2022-10-17T00:28:45;101940.19;;;5.19;74.44
58979;BME280;44763;50.464;30.612;2022-10-17T00:31:15;101885.73;;;4.81;74.85
58979;BME280;44763;50.464;30.612;2022-10-17T00:33:43;101948.61;;;5.18;75.02
58979;BME280;44763;50.464;30.612;2022-10-17T00:36:13;101950.28;;;5.19;74.98
58979;BME280;44763;50.464;30.612;2022-10-17T00:38:46;101949.34;;;5.20;74.94
58979;BME280;44763;50.464;30.612;2022-10-17T00:41:16;101938.77;;;5.20;74.88
58979;BME280;44763;50.464;30.612;2022-10-17T00:44:04;101945.09;;;5.18;75.59
58979;BME280;44763;50.464;30.612;2022-10-17T00:46:35;101938.36;;;5.14;75.93
58979;BME280;44763;50.464;30.612;2022-10-17T00:49:09;101935.58;;;5.10;76.24
58979;BME280;44763;50.464;30.612;2022-10-17T00:51:42;101937.61;;;5.06;76.59
58979;BME280;44763;50.464;30.612;2022-10-17T00:54:13;101938.69;;;5.03;76.63
58979;BME280;44763;50.464;30.612;2022-10-17T00:56:41;101940.60;;;5.01;76.66
58979;BME280;44763;50.464;30.612;2022-10-17T00:59:09;101936.15;;;5.02;76.78
58979;BME280;44763;50.464;30.612;2022-10-17T01:01:39;101934.10;;;5.00;76.77
58979;BME280;44763;50.464;30.612;2022-10-17T01:04:08;101933.97;;;4.96;77.03
58979;BME280;44763;50.464;30.612;2022-10-17T01:06:35;101937.41;;;4.91;77.33
58979;BME280;44763;50.464;30.612;2022-10-17T01:09:01;101941.59;;;4.87;77.44
58979;BME280;44763;50.464;30.612;2022-10-17T01:11:49;101941.34;;;4.85;77.60
58979;BME280;44763;50.464;30.612;2022-10-17T01:14:45;101948.89;;;4.84;77.63
58979;BME280;44763;50.464;30.612;2022-10-17T01:31:16;101927.30;;;4.84;77.97
58979;BME280;44763;50.464;30.612;2022-10-17T01:34:09;101929.70;;;4.87;77.82
58979;BME280;44763;50.464;30.612;2022-10-17T01:36:56;101932.86;;;4.93;77.71
58979;BME280;44763;50.464;30.612;2022-10-17T01:42:41;101922.70;;;4.99;77.45
58979;BME280;44763;50.464;30.612;2022-10-17T01:45:18;101929.55;;;5.02;77.35
58979;BME280;44763;50.464;30.612;2022-10-17T01:47:46;101925.22;;;5.06;77.20
58979;BME280;44763;50.464;30.612;2022-10-17T01:50:20;101920.56;;;5.10;76.99
58979;BME280;44763;50.464;30.612;2022-10-17T01:52:54;101916.38;;;5.13;76.83
58979;BME280;44763;50.464;30.612;2022-10-17T01:55:29;101918.91;;;5.15;76.73
58979;BME280;44763;50.464;30.612;2022-10-17T01:58:09;101923.50;;;5.18;76.64
58979;BME280;44763;50.464;30.612;2022-10-17T02:00:48;101925.16;;;5.19;76.48
58979;BME280;44763;50.464;30.612;2022-10-17T02:03:17;101930.00;;;5.20;76.44
58979;BME280;44763;50.464;30.612;2022-10-17T02:05:45;101932.50;;;5.21;76.35
58979;BME280;44763;50.464;30.612;2022-10-17T02:08:13;101927.21;;;5.21;76.29
58979;BME280;44763;50.464;30.612;2022-10-17T02:10:59;101927.21;;;5.21;76.23
58979;BME280;44763;50.464;30.612;2022-10-17T02:24:49;101922.06;;;5.20;76.18
58979;BME280;44763;50.464;30.612;2022-10-17T02:27:27;101912.56;;;5.23;76.10
58979;BME280;44763;50.464;30.612;2022-10-17T02:30:05;101911.24;;;5.23;76.05
58979;BME280;44763;50.464;30.612;2022-10-17T02:35:29;101916.89;;;5.18;76.34
58979;BME280;44763;50.464;30.612;2022-10-17T02:37:57;101916.16;;;5.16;76.45
58979;BME280;44763;50.464;30.612;2022-10-17T02:40:28;101922.28;;;5.17;76.38
58979;BME280;44763;50.464;30.612;2022-10-17T02:42:57;101919.16;;;5.17;76.48
58979;BME280;44763;50.464;30.612;2022-10-17T02:45:28;101915.78;;;5.15;76.71
58979;BME280;44763;50.464;30.612;2022-10-17T02:48:05;101911.92;;;5.14;76.75
58979;BME280;44763;50.464;30.612;2022-10-17T02:53:31;101906.41;;;5.11;76.96
58979;BME280;44763;50.464;30.612;2022-10-17T02:56:05;101908.20;;;5.11;76.89
58979;BME280;44763;50.464;30.612;2022-10-17T02:58:34;101913.95;;;5.10;76.96
58979;BME280;44763;50.464;30.612;2022-10-17T03:01:03;101850.14;;;4.74;76.93
58979;BME280;44763;50.464;30.612;2022-10-17T03:03:31;101914.33;;;5.11;77.06
58979;BME280;44763;50.464;30.612;2022-10-17T03:06:00;101928.87;;;5.11;77.01
58979;BME280;44763;50.464;30.612;2022-10-17T03:08:27;101941.48;;;5.13;76.98
58979;BME280;44763;50.464;30.612;2022-10-17T03:10:56;101947.02;;;5.16;76.89
58979;BME280;44763;50.464;30.612;2022-10-17T03:13:23;101950.15;;;5.15;76.93
58979;BME280;44763;50.464;30.612;2022-10-17T03:15:49;101953.52;;;5.17;76.79
58979;BME280;44763;50.464;30.612;2022-10-17T03:18:17;101960.85;;;5.19;76.82
58979;BME280;44763;50.464;30.612;2022-10-17T03:20:46;101968.19;;;5.21;76.74
58979;BME280;44763;50.464;30.612;2022-10-17T03:23:13;101973.27;;;5.24;76.83
58979;BME280;44763;50.464;30.612;2022-10-17T03:25:40;101969.19;;;5.26;76.90
58979;BME280;44763;50.464;30.612;2022-10-17T03:28:08;101970.23;;;5.23;76.78
58979;BME280;44763;50.464;30.612;2022-10-17T03:30:37;101973.02;;;5.22;76.81
58979;BME280;44763;50.464;30.612;2022-10-17T03:33:03;101966.73;;;5.17;76.98
58979;BME280;44763;50.464;30.612;2022-10-17T03:35:29;101970.95;;;5.14;77.14
58979;BME280;44763;50.464;30.612;2022-10-17T03:37:56;101976.20;;;5.09;77.26
58979;BME280;44763;50.464;30.612;2022-10-17T03:40:23;101976.42;;;5.05;77.44
58979;BME280;44763;50.464;30.612;2022-10-17T03:42:49;101982.92;;;5.07;77.59
58979;BME280;44763;50.464;30.612;2022-10-17T03:45:16;101986.98;;;5.05;77.53
58979;BME280;44763;50.464;30.612;2022-10-17T03:47:42;101991.55;;;5.03;77.71
58979;BME280;44763;50.464;30.612;2022-10-17T03:50:08;101985.42;;;5.03;77.61
58979;BME280;44763;50.464;30.612;2022-10-17T03:52:36;101982.37;;;4.96;77.67
58979;BME280;44763;50.464;30.612;2022-10-17T03:55:02;101984.17;;;4.96;77.72
58979;BME280;44763;50.464;30.612;2022-10-17T03:57:30;101990.19;;;4.98;77.65
58979;BME280;44763;50.464;30.612;2022-10-17T03:59:56;101986.33;;;4.96;77.69
58979;BME280;44763;50.464;30.612;2022-10-17T04:02:25;101985.02;;;4.96;77.68
58979;BME280;44763;50.464;30.612;2022-10-17T04:04:51;101975.38;;;4.95;77.67
58979;BME280;44763;50.464;30.612;2022-10-17T04:07:17;101980.80;;;4.94;77.68
58979;BME280;44763;50.464;30.612;2022-10-17T04:09:46;101984.62;;;4.95;77.65
58979;BME280;44763;50.464;30.612;2022-10-17T04:12:14;101980.21;;;4.96;77.59
58979;BME280;44763;50.464;30.612;2022-10-17T04:14:41;101985.74;;;4.98;77.44
58979;BME280;44763;50.464;30.612;2022-10-17T04:17:09;101990.81;;;5.01;77.28
58979;BME280;44763;50.464;30.612;2022-10-17T04:19:35;101983.27;;;5.08;77.09
58979;BME280;44763;50.464;30.612;2022-10-17T04:22:03;101975.13;;;5.11;76.79
58979;BME280;44763;50.464;30.612;2022-10-17T04:24:32;101977.06;;;5.15;76.40
58979;BME280;44763;50.464;30.612;2022-10-17T04:27:00;101972.75;;;5.19;76.12
58979;BME280;44763;50.464;30.612;2022-10-17T04:29:30;101962.30;;;5.23;75.73
58979;BME280;44763;50.464;30.612;2022-10-17T04:32:07;101959.69;;;5.29;75.46
58979;BME280;44763;50.464;30.612;2022-10-17T04:34:35;101951.78;;;5.35;75.26
58979;BME280;44763;50.464;30.612;2022-10-17T04:37:02;101950.23;;;5.38;75.17
58979;BME280;44763;50.464;30.612;2022-10-17T04:39:28;101954.44;;;5.40;75.04
58979;BME280;44763;50.464;30.612;2022-10-17T04:41:57;101962.17;;;5.49;74.96
58979;BME280;44763;50.464;30.612;2022-10-17T04:44:24;101963.92;;;5.67;74.57
58979;BME280;44763;50.464;30.612;2022-10-17T04:47:07;101971.42;;;5.90;73.71
58979;BME280;44763;50.464;30.612;2022-10-17T04:49:39;101974.62;;;6.07;72.61
58979;BME280;44763;50.464;30.612;2022-10-17T04:52:06;101969.80;;;6.23;72.18
58979;BME280;44763;50.464;30.612;2022-10-17T04:54:40;101968.24;;;6.37;71.30
58979;BME280;44763;50.464;30.612;2022-10-17T04:57:18;101968.81;;;6.75;70.94
58979;BME280;44763;50.464;30.612;2022-10-17T04:59:47;101969.06;;;7.10;68.70
58979;BME280;44763;50.464;30.612;2022-10-17T05:02:25;101969.52;;;7.20;67.74
58979;BME280;44763;50.464;30.612;2022-10-17T05:04:51;101973.59;;;7.25;67.43
58979;BME280;44763;50.464;30.612;2022-10-17T05:07:19;101975.56;;;7.44;67.21
58979;BME280;44763;50.464;30.612;2022-10-17T05:10:02;101987.30;;;7.83;65.24
58979;BME280;44763;50.464;30.612;2022-10-17T05:12:31;101983.96;;;7.96;63.91
58979;BME280;44763;50.464;30.612;2022-10-17T05:15:06;101992.98;;;7.84;63.89
58979;BME280;44763;50.464;30.612;2022-10-17T05:17:35;101983.14;;;7.75;64.47
58979;BME280;44763;50.464;30.612;2022-10-17T05:20:01;101988.34;;;7.92;64.45
58979;BME280;44763;50.464;30.612;2022-10-17T05:22:30;101979.43;;;8.39;63.26
58979;BME280;44763;50.464;30.612;2022-10-17T05:24:56;101987.34;;;9.01;61.55
58979;BME280;44763;50.464;30.612;2022-10-17T05:27:25;101996.60;;;9.65;58.89
58979;BME280;44763;50.464;30.612;2022-10-17T05:29:56;101996.03;;;10.28;56.83
58979;BME280;44763;50.464;30.612;2022-10-17T05:32:24;101989.03;;;10.78;54.19
58979;BME280;44763;50.464;30.612;2022-10-17T05:34:52;101989.69;;;11.08;52.92
58979;BME280;44763;50.464;30.612;2022-10-17T05:37:24;101986.33;;;11.24;52.06
58979;BME280;44763;50.464;30.612;2022-10-17T05:39:53;101980.77;;;11.53;51.08
58979;BME280;44763;50.464;30.612;2022-10-17T05:42:21;101973.06;;;11.72;50.28
58979;BME280;44763;50.464;30.612;2022-10-17T05:44:48;101971.49;;;11.87;49.82
58979;BME280;44763;50.464;30.612;2022-10-17T05:47:16;101971.91;;;11.93;49.02
58979;BME280;44763;50.464;30.612;2022-10-17T05:49:44;101976.72;;;12.15;48.60
58979;BME280;44763;50.464;30.612;2022-10-17T05:52:14;101980.50;;;12.39;47.98
58979;BME280;44763;50.464;30.612;2022-10-17T05:54:45;101990.47;;;12.67;47.72
58979;BME280;44763;50.464;30.612;2022-10-17T05:57:25;101993.08;;;13.01;46.78
58979;BME280;44763;50.464;30.612;2022-10-17T05:59:55;102004.61;;;12.94;46.38
58979;BME280;44763;50.464;30.612;2022-10-17T06:02:21;101994.55;;;12.41;47.21
58979;BME280;44763;50.464;30.612;2022-10-17T06:04:53;101999.37;;;11.63;48.75
58979;BME280;44763;50.464;30.612;2022-10-17T06:07:34;102004.14;;;10.87;51.43
58979;BME280;44763;50.464;30.612;2022-10-17T06:10:05;101988.99;;;10.13;53.14
58979;BME280;44763;50.464;30.612;2022-10-17T06:12:32;102005.63;;;9.68;54.62
58979;BME280;44763;50.464;30.612;2022-10-17T06:15:00;101994.63;;;9.28;55.85
58979;BME280;44763;50.464;30.612;2022-10-17T06:17:27;101991.66;;;9.02;57.07
58979;BME280;44763;50.464;30.612;2022-10-17T06:19:56;101993.72;;;8.79;57.84
58979;BME280;44763;50.464;30.612;2022-10-17T06:22:22;101988.98;;;8.57;59.12
58979;BME280;44763;50.464;30.612;2022-10-17T06:24:49;102004.87;;;8.47;59.77
58979;BME280;44763;50.464;30.612;2022-10-17T06:27:17;102004.30;;;8.38;60.16
58979;BME280;44763;50.464;30.612;2022-10-17T06:29:46;102007.16;;;8.31;60.70
58979;BME280;44763;50.464;30.612;2022-10-17T06:32:51;102023.56;;;8.30;60.95
58979;BME280;44763;50.464;30.612;2022-10-17T06:35:30;102023.81;;;8.33;61.34
58979;BME280;44763;50.464;30.612;2022-10-17T06:38:16;102016.67;;;8.33;60.82
58979;BME280;44763;50.464;30.612;2022-10-17T06:41:12;102027.80;;;8.33;60.99
58979;BME280;44763;50.464;30.612;2022-10-17T06:43:46;102036.72;;;8.32;61.26
58979;BME280;44763;50.464;30.612;2022-10-17T06:46:33;102035.14;;;8.35;61.26
58979;BME280;44763;50.464;30.612;2022-10-17T06:49:05;102043.45;;;8.36;61.90
58979;BME280;44763;50.464;30.612;2022-10-17T06:51:37;102036.18;;;8.44;61.17
58979;BME280;44763;50.464;30.612;2022-10-17T06:54:05;102032.15;;;8.49;61.19
58979;BME280;44763;50.464;30.612;2022-10-17T06:56:40;102023.79;;;8.54;61.23
58979;BME280;44763;50.464;30.612;2022-10-17T06:59:09;102023.37;;;8.58;60.97
58979;BME280;44763;50.464;30.612;2022-10-17T07:01:41;102019.97;;;8.62;60.63
58979;BME280;44763;50.464;30.612;2022-10-17T07:04:23;102032.58;;;8.70;61.03
58979;BME280;44763;50.464;30.612;2022-10-17T07:06:52;102032.98;;;8.81;60.78
58979;BME280;44763;50.464;30.612;2022-10-17T07:09:23;102025.02;;;8.90;60.55
58979;BME280;44763;50.464;30.612;2022-10-17T07:11:53;102018.81;;;8.95;60.57
58979;BME280;44763;50.464;30.612;2022-10-17T07:14:23;102013.70;;;8.98;59.59
58979;BME280;44763;50.464;30.612;2022-10-17T07:16:53;102011.41;;;8.99;60.03
58979;BME280;44763;50.464;30.612;2022-10-17T07:19:22;102014.84;;;9.05;60.77
58979;BME280;44763;50.464;30.612;2022-10-17T07:21:49;102015.34;;;9.14;59.58
58979;BME280;44763;50.464;30.612;2022-10-17T07:24:32;102022.14;;;9.23;59.61
58979;BME280;44763;50.464;30.612;2022-10-17T07:27:04;102036.19;;;9.34;59.93
58979;BME280;44763;50.464;30.612;2022-10-17T07:29:32;102031.83;;;9.43;59.54
58979;BME280;44763;50.464;30.612;2022-10-17T07:31:59;102041.50;;;9.54;59.02
58979;BME280;44763;50.464;30.612;2022-10-17T07:34:29;102041.17;;;9.63;59.00
58979;BME280;44763;50.464;30.612;2022-10-17T07:36:57;102042.12;;;9.71;58.72
58979;BME280;44763;50.464;30.612;2022-10-17T07:39:23;102040.95;;;9.80;58.37
58979;BME280;44763;50.464;30.612;2022-10-17T07:41:50;102041.08;;;9.88;58.71
58979;BME280;44763;50.464;30.612;2022-10-17T07:44:18;102036.86;;;9.95;57.52
58979;BME280;44763;50.464;30.612;2022-10-17T07:46:48;102030.06;;;9.97;57.79
58979;BME280;44763;50.464;30.612;2022-10-17T07:49:15;102026.32;;;10.03;57.64
58979;BME280;44763;50.464;30.612;2022-10-17T07:51:48;102029.32;;;10.14;57.99
58979;BME280;44763;50.464;30.612;2022-10-17T07:54:20;102028.23;;;10.21;57.05
58979;BME280;44763;50.464;30.612;2022-10-17T07:56:50;102019.63;;;10.23;56.96
58979;BME280;44763;50.464;30.612;2022-10-17T07:59:24;102020.52;;;10.27;56.90
58979;BME280;44763;50.464;30.612;2022-10-17T08:01:56;102017.66;;;10.35;57.04
58979;BME280;44763;50.464;30.612;2022-10-17T08:04:22;102015.64;;;10.46;56.77
58979;BME280;44763;50.464;30.612;2022-10-17T08:06:48;102019.50;;;10.62;56.68
58979;BME280;44763;50.464;30.612;2022-10-17T08:09:15;102015.34;;;10.77;56.32
58979;BME280;44763;50.464;30.612;2022-10-17T08:11:43;102009.02;;;10.92;55.37
58979;BME280;44763;50.464;30.612;2022-10-17T08:14:11;102015.11;;;10.98;54.79
58979;BME280;44763;50.464;30.612;2022-10-17T08:16:39;102008.70;;;11.09;54.88
58979;BME280;44763;50.464;30.612;2022-10-17T08:19:06;102006.31;;;11.20;54.27
58979;BME280;44763;50.464;30.612;2022-10-17T08:21:35;102008.77;;;11.31;54.58
58979;BME280;44763;50.464;30.612;2022-10-17T08:24:03;101834.42;;;10.37;53.69
58979;BME280;44763;50.464;30.612;2022-10-17T08:26:30;102006.84;;;11.59;53.63
58979;BME280;44763;50.464;30.612;2022-10-17T08:28:56;101998.95;;;11.72;52.22
58979;BME280;44763;50.464;30.612;2022-10-17T08:31:22;101995.50;;;11.79;52.49
58979;BME280;44763;50.464;30.612;2022-10-17T08:34:08;101990.05;;;11.89;52.26
58979;BME280;44763;50.464;30.612;2022-10-17T08:36:39;101995.14;;;11.96;51.64
58979;BME280;44763;50.464;30.612;2022-10-17T08:39:13;101992.38;;;12.10;51.66
58979;BME280;44763;50.464;30.612;2022-10-17T08:47:47;101976.33;;;12.40;49.96
58979;BME280;44763;50.464;30.612;2022-10-17T08:56:04;101966.59;;;12.70;49.35
58979;BME280;44763;50.464;30.612;2022-10-17T08:58:38;101960.43;;;12.81;48.86
58979;BME280;44763;50.464;30.612;2022-10-17T09:13:15;101965.83;;;13.18;47.00
58979;BME280;44763;50.464;30.612;2022-10-17T09:15:51;101966.02;;;13.25;46.55
58979;BME280;44763;50.464;30.612;2022-10-17T09:18:22;101974.08;;;13.33;46.67
58979;BME280;44763;50.464;30.612;2022-10-17T09:20:53;101969.06;;;13.42;46.28
58979;BME280;44763;50.464;30.612;2022-10-17T09:23:36;101970.23;;;13.52;46.71
58979;BME280;44763;50.464;30.612;2022-10-17T09:26:03;101970.23;;;13.65;45.56
58979;BME280;44763;50.464;30.612;2022-10-17T09:28:34;101962.37;;;13.71;45.61
58979;BME280;44763;50.464;30.612;2022-10-17T09:31:23;101954.31;;;13.79;45.39
58979;BME280;44763;50.464;30.612;2022-10-17T09:33:56;101959.66;;;13.83;44.63
58979;BME280;44763;50.464;30.612;2022-10-17T09:36:32;101959.33;;;13.91;45.46
58979;BME280;44763;50.464;30.612;2022-10-17T09:39:01;101951.59;;;14.00;44.77
58979;BME280;44763;50.464;30.612;2022-10-17T09:41:36;101952.75;;;14.06;44.57
58979;BME280;44763;50.464;30.612;2022-10-17T09:50:13;101962.89;;;14.31;44.02
58979;BME280;44763;50.464;30.612;2022-10-17T09:52:43;101955.47;;;14.45;43.89
58979;BME280;44763;50.464;30.612;2022-10-17T09:55:36;101960.31;;;14.58;42.46
58979;BME280;44763;50.464;30.612;2022-10-17T09:58:05;101959.59;;;14.64;41.78
58979;BME280;44763;50.464;30.612;2022-10-17T10:00:35;101960.57;;;14.67;42.03
58979;BME280;44763;50.464;30.612;2022-10-17T10:06:17;101953.63;;;14.81;42.37
58979;BME280;44763;50.464;30.612;2022-10-17T10:08:52;101949.72;;;14.92;42.34
58979;BME280;44763;50.464;30.612;2022-10-17T10:11:25;101944.83;;;14.91;41.17
58979;BME280;44763;50.464;30.612;2022-10-17T10:13:56;101942.87;;;14.85;40.88
58979;BME280;44763;50.464;30.612;2022-10-17T10:16:33;101945.06;;;14.82;40.84
58979;BME280;44763;50.464;30.612;2022-10-17T10:19:03;101937.88;;;14.78;41.21
58979;BME280;44763;50.464;30.612;2022-10-17T10:21:35;101941.22;;;14.80;41.16
58979;BME280;44763;50.464;30.612;2022-10-17T10:24:12;101943.90;;;14.80;40.67
58979;BME280;44763;50.464;30.612;2022-10-17T10:26:46;101937.02;;;14.82;41.02
58979;BME280;44763;50.464;30.612;2022-10-17T10:29:42;101944.04;;;14.87;40.80
58979;BME280;44763;50.464;30.612;2022-10-17T10:38:14;101931.09;;;14.90;40.79
58979;BME280;44763;50.464;30.612;2022-10-17T10:40:51;101940.63;;;14.93;40.57
58979;BME280;44763;50.464;30.612;2022-10-17T10:46:06;101944.42;;;15.03;40.50
58979;BME280;44763;50.464;30.612;2022-10-17T10:48:52;101950.28;;;15.06;40.69
58979;BME280;44763;50.464;30.612;2022-10-17T10:51:39;101943.56;;;15.06;40.28
58979;BME280;44763;50.464;30.612;2022-10-17T10:54:10;101946.94;;;15.04;40.13
58979;BME280;44763;50.464;30.612;2022-10-17T10:56:42;101948.45;;;15.03;40.58
58979;BME280;44763;50.464;30.612;2022-10-17T10:59:28;101945.28;;;15.03;40.16
58979;BME280;44763;50.464;30.612;2022-10-17T11:02:13;101946.91;;;15.08;39.91
58979;BME280;44763;50.464;30.612;2022-10-17T11:05:15;101948.07;;;15.10;39.86
58979;BME280;44763;50.464;30.612;2022-10-17T11:07:59;101940.84;;;15.10;39.78
58979;BME280;44763;50.464;30.612;2022-10-17T11:10:36;101927.23;;;15.12;40.33
58979;BME280;44763;50.464;30.612;2022-10-17T11:13:18;101922.83;;;15.19;39.95
58979;BME280;44763;50.464;30.612;2022-10-17T11:15:51;101908.02;;;15.23;39.82
58979;BME280;44763;50.464;30.612;2022-10-17T11:18:43;101903.94;;;15.27;39.50
58979;BME280;44763;50.464;30.612;2022-10-17T11:21:33;101903.94;;;15.31;39.44
58979;BME280;44763;50.464;30.612;2022-10-17T11:24:22;101883.41;;;15.34;39.33
58979;BME280;44763;50.464;30.612;2022-10-17T11:26:57;101881.32;;;15.41;38.71
58979;BME280;44763;50.464;30.612;2022-10-17T11:29:30;101880.83;;;15.41;38.40
58979;BME280;44763;50.464;30.612;2022-10-17T11:36:38;101885.72;;;15.56;38.91
58979;BME280;44763;50.464;30.612;2022-10-17T11:39:33;101881.13;;;15.61;38.28
58979;BME280;44763;50.464;30.612;2022-10-17T11:42:20;101876.27;;;15.61;37.84
58979;BME280;44763;50.464;30.612;2022-10-17T11:45:11;101879.47;;;15.60;38.22
58979;BME280;44763;50.464;30.612;2022-10-17T11:47:46;101874.61;;;15.60;37.86
58979;BME280;44763;50.464;30.612;2022-10-17T11:50:22;101872.88;;;15.63;38.21
58979;BME280;44763;50.464;30.612;2022-10-17T11:53:07;101862.94;;;15.67;38.08
58979;BME280;44763;50.464;30.612;2022-10-17T11:55:42;101856.34;;;15.70;37.68
58979;BME280;44763;50.464;30.612;2022-10-17T12:09:53;101843.60;;;15.68;37.05
58979;BME280;44763;50.464;30.612;2022-10-17T12:12:27;101842.08;;;15.69;37.04
58979;BME280;44763;50.464;30.612;2022-10-17T12:17:54;101840.84;;;15.76;37.06
58979;BME280;44763;50.464;30.612;2022-10-17T12:20:26;101839.31;;;15.78;36.93
58979;BME280;44763;50.464;30.612;2022-10-17T12:23:01;101839.02;;;15.76;36.71
58979;BME280;44763;50.464;30.612;2022-10-17T12:25:34;101837.14;;;15.77;36.83
58979;BME280;44763;50.464;30.612;2022-10-17T12:33:35;101840.53;;;15.75;36.64
58979;BME280;44763;50.464;30.612;2022-10-17T12:49:43;101832.88;;;15.83;37.05
58979;BME280;44763;50.464;30.612;2022-10-17T12:55:13;101823.72;;;15.88;36.64
58979;BME280;44763;50.464;30.612;2022-10-17T12:57:58;101824.88;;;15.89;36.62
58979;BME280;44763;50.464;30.612;2022-10-17T13:00:36;101832.77;;;15.91;36.77
58979;BME280;44763;50.464;30.612;2022-10-17T13:03:20;101829.56;;;15.91;36.79
58979;BME280;44763;50.464;30.612;2022-10-17T13:05:51;101826.69;;;15.93;37.04
58979;BME280;44763;50.464;30.612;2022-10-17T13:08:37;101828.86;;;15.93;37.02
58979;BME280;44763;50.464;30.612;2022-10-17T13:11:05;101828.86;;;15.93;37.16
58979;BME280;44763;50.464;30.612;2022-10-17T13:13:40;101826.17;;;15.93;37.01
58979;BME280;44763;50.464;30.612;2022-10-17T13:16:32;101827.02;;;15.94;37.11
58979;BME280;44763;50.464;30.612;2022-10-17T13:19:03;101834.58;;;15.94;36.95
58979;BME280;44763;50.464;30.612;2022-10-17T13:27:03;101826.63;;;15.97;37.43
58979;BME280;44763;50.464;30.612;2022-10-17T13:29:31;101826.97;;;15.98;37.53
58979;BME280;44763;50.464;30.612;2022-10-17T13:31:59;101833.52;;;16.00;37.59
58979;BME280;44763;50.464;30.612;2022-10-17T13:34:31;101829.60;;;16.02;37.73
58979;BME280;44763;50.464;30.612;2022-10-17T13:37:01;101826.20;;;16.04;37.82
58979;BME280;44763;50.464;30.612;2022-10-17T13:39:35;101825.69;;;16.05;37.84
58979;BME280;44763;50.464;30.612;2022-10-17T13:42:23;101822.52;;;16.05;37.78
58979;BME280;44763;50.464;30.612;2022-10-17T13:44:51;101819.48;;;16.04;37.70
58979;BME280;44763;50.464;30.612;2022-10-17T13:47:23;101815.33;;;16.02;37.55
58979;BME280;44763;50.464;30.612;2022-10-17T13:49:54;101818.53;;;16.01;37.27
58979;BME280;44763;50.464;30.612;2022-10-17T13:52:23;101817.68;;;16.01;37.14
58979;BME280;44763;50.464;30.612;2022-10-17T13:54:52;101813.16;;;16.01;36.91
58979;BME280;44763;50.464;30.612;2022-10-17T13:57:24;101815.33;;;16.02;36.94
58979;BME280;44763;50.464;30.612;2022-10-17T14:00:01;101810.47;;;16.01;37.05
58979;BME280;44763;50.464;30.612;2022-10-17T14:02:32;101811.48;;;16.00;37.07
58979;BME280;44763;50.464;30.612;2022-10-17T14:05:10;101818.38;;;15.99;37.23
58979;BME280;44763;50.464;30.612;2022-10-17T14:10:23;101811.59;;;15.92;37.78
58979;BME280;44763;50.464;30.612;2022-10-17T14:12:53;101806.77;;;15.87;37.59
58979;BME280;44763;50.464;30.612;2022-10-17T14:15:22;101807.28;;;15.87;37.66
58979;BME280;44763;50.464;30.612;2022-10-17T14:18:02;101805.11;;;15.86;37.72
58979;BME280;44763;50.464;30.612;2022-10-17T14:20:31;101806.12;;;15.85;37.75
58979;BME280;44763;50.464;30.612;2022-10-17T14:22:59;101807.52;;;15.81;37.83
58979;BME280;44763;50.464;30.612;2022-10-17T14:25:27;101802.33;;;15.80;37.77
58979;BME280;44763;50.464;30.612;2022-10-17T14:30:48;101799.81;;;15.78;37.89
58979;BME280;44763;50.464;30.612;2022-10-17T14:35:54;101809.13;;;15.71;37.68
58979;BME280;44763;50.464;30.612;2022-10-17T14:38:22;101809.48;;;15.68;38.09
58979;BME280;44763;50.464;30.612;2022-10-17T14:40:55;101816.20;;;15.68;38.42
58979;BME280;44763;50.464;30.612;2022-10-17T14:43:28;101803.83;;;15.63;38.72
58979;BME280;44763;50.464;30.612;2022-10-17T14:45:59;101807.91;;;15.59;38.79
58979;BME280;44763;50.464;30.612;2022-10-17T14:48:27;101810.64;;;15.55;38.82
58979;BME280;44763;50.464;30.612;2022-10-17T14:51:14;101811.34;;;15.53;38.70
58979;BME280;44763;50.464;30.612;2022-10-17T14:54:03;101817.42;;;15.51;38.86
58979;BME280;44763;50.464;30.612;2022-10-17T14:56:40;101811.05;;;15.48;39.00
58979;BME280;44763;50.464;30.612;2022-10-17T14:59:08;101815.48;;;15.45;39.26
58979;BME280;44763;50.464;30.612;2022-10-17T15:01:37;101818.52;;;15.42;39.21
58979;BME280;44763;50.464;30.612;2022-10-17T15:04:03;101826.63;;;15.37;39.21
58979;BME280;44763;50.464;30.612;2022-10-17T15:06:33;101826.29;;;15.36;39.37
58979;BME280;44763;50.464;30.612;2022-10-17T15:09:01;101827.81;;;15.35;39.44
58979;BME280;44763;50.464;30.612;2022-10-17T15:11:29;101830.70;;;15.33;39.48
58979;BME280;44763;50.464;30.612;2022-10-17T15:13:56;101824.69;;;15.31;39.45
58979;BME280;44763;50.464;30.612;2022-10-17T15:16:29;101820.83;;;15.30;39.42
58979;BME280;44763;50.464;30.612;2022-10-17T15:18:52;101824.52;;;15.29;39.61
58979;BME280;44763;50.464;30.612;2022-10-17T15:21:20;101824.92;;;15.22;39.98
58979;BME280;44763;50.464;30.612;2022-10-17T15:23:48;101827.13;;;15.18;40.25